Time;durP1;ratioP1;P1;durP2;ratioP2;P2;SDS_P1;SDS_P2;PMS_P1;PMS_P2;Temp;Humidity;BMP_temperature;BMP_pressure;BME280_temperature;BME280_humidity;BME280_pressure;Samples;Min_cycle;Max_cycle;Signal;HPM_P1;HPM_P2
2023/07/03 00:00:14;;;;;;;8.05;3.42;;;;;;;21.58;100.00;99836.97;5002086;28;20066;-74
2023/07/03 00:02:40;;;;;;;11.13;3.10;;;;;;;20.97;100.00;99756.56;5006005;28;20060;-75
2023/07/03 00:05:08;;;;;;;6.20;3.05;;;;;;;21.05;100.00;99777.53;5006703;28;20030;-75
2023/07/03 00:07:34;;;;;;;3.75;2.20;;;;;;;21.23;100.00;99834.34;5008500;28;20523;-74
2023/07/03 00:10:00;;;;;;;3.85;1.95;;;;;;;20.77;100.00;99770.97;5008344;28;20390;-75
2023/07/03 00:12:25;;;;;;;6.72;3.85;;;;;;;20.76;100.00;99753.25;5006994;28;20096;-74
2023/07/03 00:14:51;;;;;;;7.13;3.45;;;;;;;21.40;100.00;99852.16;5008163;28;20060;-75
2023/07/03 00:17:16;;;;;;;4.50;3.63;;;;;;;21.21;100.00;99815.78;5007932;28;20034;-75
2023/07/03 00:19:42;;;;;;;8.18;3.42;;;;;;;20.96;100.00;99768.19;5008659;28;20022;-75
2023/07/03 00:22:07;;;;;;;5.07;3.28;;;;;;;21.28;100.00;99834.97;5006823;28;20633;-74
2023/07/03 00:24:33;;;;;;;6.78;3.13;;;;;;;21.01;100.00;99790.16;5003798;28;20053;-73
2023/07/03 00:26:59;;;;;;;7.95;3.85;;;;;;;21.28;100.00;99849.19;4998695;28;20066;-76
2023/07/03 00:29:29;;;;;;;4.30;3.05;;;;;;;21.37;100.00;99855.81;4993972;28;20064;-75
2023/07/03 00:31:54;;;;;;;3.95;2.72;;;;;;;20.49;100.00;99738.69;5002735;28;20089;-76
2023/07/03 00:34:20;;;;;;;5.88;3.72;;;;;;;21.18;100.00;99842.59;5005226;28;20042;-75
2023/07/03 00:36:46;;;;;;;7.97;3.90;;;;;;;21.26;100.00;99844.88;5006327;28;20069;-74
2023/07/03 00:39:12;;;;;;;7.65;3.45;;;;;;;21.34;100.00;99853.34;5005407;28;20049;-75
2023/07/03 00:41:37;;;;;;;3.72;2.60;;;;;;;21.16;100.00;99838.28;4999586;28;20121;-75
2023/07/03 00:44:03;;;;;;;4.20;2.67;;;;;;;20.67;100.00;99769.72;4988375;28;20037;-75
2023/07/03 00:46:29;;;;;;;4.00;2.30;;;;;;;20.55;100.00;99752.53;5004122;28;20510;-75
2023/07/03 00:48:54;;;;;;;6.38;3.85;;;;;;;21.12;100.00;99829.59;5004361;28;20052;-74
2023/07/03 00:51:20;;;;;;;4.50;3.03;;;;;;;20.71;100.00;99749.09;5003797;28;20045;-74
2023/07/03 00:53:46;;;;;;;5.65;2.90;;;;;;;21.22;100.00;99838.84;5006727;28;20066;-76
2023/07/03 00:56:12;;;;;;;7.20;3.08;;;;;;;20.80;100.00;99767.28;5004654;28;20037;-75
2023/07/03 00:58:38;;;;;;;6.30;3.58;;;;;;;20.69;100.00;99754.50;5005812;28;20060;-75
2023/07/03 01:01:15;;;;;;;4.97;2.75;;;;;;;21.34;100.00;99864.00;5002088;28;20061;-75
2023/07/03 01:03:46;;;;;;;6.85;4.05;;;;;;;20.68;100.00;99798.13;4995492;28;20498;-75
2023/07/03 01:06:19;;;;;;;5.50;2.95;;;;;;;21.05;100.00;99825.53;5007153;28;20049;-75
2023/07/03 01:08:49;;;;;;;3.78;2.88;;;;;;;21.25;100.00;99857.34;5000754;28;20062;-75
2023/07/03 01:11:17;;;;;;;5.40;3.55;;;;;;;20.70;100.00;99764.25;5007179;28;20030;-74
2023/07/03 01:13:45;;;;;;;6.65;3.58;;;;;;;20.71;100.00;99781.09;5007903;28;20038;-74
2023/07/03 01:16:11;;;;;;;5.93;3.58;;;;;;;20.69;100.00;99781.16;5007026;28;20061;-74
2023/07/03 01:18:38;;;;;;;5.20;2.95;;;;;;;21.15;100.00;99868.59;4995245;28;20034;-75
2023/07/03 01:21:15;;;;;;;4.80;2.80;;;;;;;20.81;100.00;99811.66;5007405;28;20042;-76
2023/07/03 01:23:57;;;;;;;10.05;5.03;;;;;;;21.21;100.00;99882.50;5002181;28;20962;-75
2023/07/03 01:26:25;;;;;;;5.20;2.60;;;;;;;20.65;100.00;99788.47;5004560;28;20050;-75
2023/07/03 01:28:56;;;;;;;7.85;3.00;;;;;;;20.23;100.00;99725.75;5005997;28;20219;-75
2023/07/03 01:31:25;;;;;;;7.30;4.22;;;;;;;20.56;100.00;99796.94;5003529;28;20046;-76
2023/07/03 01:33:52;;;;;;;5.53;2.90;;;;;;;21.04;100.00;99874.50;5005669;28;20095;-74
2023/07/03 01:36:18;;;;;;;8.00;4.03;;;;;;;21.00;100.00;99883.59;5006405;28;20052;-75
2023/07/03 01:38:45;;;;;;;7.07;4.82;;;;;;;21.03;100.00;99880.78;5007328;28;20042;-75
2023/07/03 01:41:14;;;;;;;6.40;3.95;;;;;;;20.51;100.00;99806.97;5006706;28;20072;-75
2023/07/03 01:43:41;;;;;;;7.70;4.18;;;;;;;20.38;100.00;99795.19;4990100;28;20075;-75
2023/07/03 01:46:08;;;;;;;5.78;3.50;;;;;;;20.61;100.00;99826.91;5006909;28;20042;-76
2023/07/03 01:48:34;;;;;;;5.50;3.83;;;;;;;19.29;100.00;99623.03;4988747;28;20709;-76
2023/07/03 01:51:02;;;;;;;6.45;3.53;;;;;;;20.82;100.00;99893.41;5002442;28;20509;-76
2023/07/03 01:53:36;;;;;;;6.30;4.30;;;;;;;20.80;100.00;99890.81;4997727;28;20129;-76
2023/07/03 01:56:11;;;;;;;6.45;3.85;;;;;;;20.77;100.00;99901.63;5002732;28;20046;-75
2023/07/03 01:58:52;;;;;;;3.95;2.85;;;;;;;20.58;100.00;99877.72;5005832;28;20124;-76
2023/07/03 02:01:24;;;;;;;4.18;2.65;;;;;;;20.14;100.00;99807.94;4987362;28;20046;-75
2023/07/03 02:03:54;;;;;;;9.90;4.13;;;;;;;20.73;100.00;99899.22;4996044;28;20050;-76
2023/07/03 02:06:24;;;;;;;15.65;5.45;;;;;;;20.63;100.00;99901.47;5006063;28;20146;-76
2023/07/03 02:08:51;;;;;;;5.35;3.13;;;;;;;20.64;100.00;99892.53;4998671;28;20049;-75
2023/07/03 02:11:20;;;;;;;5.28;2.70;;;;;;;20.80;100.00;99904.16;5004895;28;20040;-75
2023/07/03 02:13:45;;;;;;;8.73;4.93;;;;;;;20.19;100.00;99813.88;5003682;28;20042;-75
2023/07/03 02:16:11;;;;;;;7.97;4.45;;;;;;;20.21;100.00;99820.88;5004992;28;20042;-75
2023/07/03 02:18:37;;;;;;;10.05;3.55;;;;;;;20.47;100.00;99877.34;5001394;28;20577;-75
2023/07/03 02:21:06;;;;;;;7.20;4.32;;;;;;;20.70;100.00;99920.66;5003263;28;20042;-75
2023/07/03 02:23:32;;;;;;;10.02;4.32;;;;;;;20.31;100.00;99871.03;5009638;28;20049;-74
2023/07/03 02:25:57;;;;;;;9.48;3.70;;;;;;;19.99;100.00;99834.38;5009469;28;20030;-75
2023/07/03 02:28:23;;;;;;;8.82;3.22;;;;;;;19.97;100.00;99838.91;5009772;28;20042;-74
2023/07/03 02:30:48;;;;;;;5.88;3.38;;;;;;;20.02;100.00;99854.69;5010708;28;20038;-75
2023/07/03 02:33:14;;;;;;;8.10;3.95;;;;;;;20.03;100.00;99875.03;5006471;28;20053;-74
2023/07/03 02:35:41;;;;;;;6.47;3.30;;;;;;;20.23;100.00;99909.56;4987021;28;20518;-74
2023/07/03 02:38:08;;;;;;;5.15;3.42;;;;;;;20.30;100.00;99902.16;5009861;28;20049;-76
2023/07/03 02:40:34;;;;;;;8.13;4.70;;;;;;;20.21;100.00;99919.44;5010350;28;20026;-76
2023/07/03 02:43:00;;;;;;;5.97;3.47;;;;;;;20.02;100.00;99882.16;5009784;28;20061;-76
2023/07/03 02:45:25;;;;;;;6.55;3.63;;;;;;;19.89;100.00;99854.38;4997765;28;20513;-75
2023/07/03 02:47:51;;;;;;;8.15;4.30;;;;;;;20.44;100.00;99953.00;5003283;28;20108;-74
2023/07/03 02:50:16;;;;;;;7.78;4.35;;;;;;;19.97;100.00;99876.19;5004018;28;20030;-74
2023/07/03 02:52:42;;;;;;;4.78;3.17;;;;;;;20.00;100.00;99851.22;5008089;28;20091;-74
2023/07/03 02:55:08;;;;;;;6.55;3.20;;;;;;;20.13;100.00;99859.47;5003112;28;20046;-74
2023/07/03 02:57:33;;;;;;;6.40;4.90;;;;;;;20.13;100.00;99862.13;4990531;28;20496;-74
2023/07/03 02:59:59;;;;;;;7.50;4.47;;;;;;;20.64;100.00;99951.19;5006135;28;20050;-74
2023/07/03 03:02:25;;;;;;;7.15;3.45;;;;;;;20.17;100.00;99861.06;5009432;28;20088;-74
2023/07/03 03:04:51;;;;;;;7.72;4.10;;;;;;;20.62;100.00;99919.25;5008565;28;20048;-75
2023/07/03 03:07:17;;;;;;;9.60;4.78;;;;;;;20.82;100.00;99950.28;5005137;28;20037;-74
2023/07/03 03:09:42;;;;;;;6.93;4.03;;;;;;;20.87;100.00;99948.22;5005714;28;20049;-76
2023/07/03 03:12:08;;;;;;;8.98;5.22;;;;;;;20.82;100.00;99931.59;5008090;28;20072;-75
2023/07/03 03:14:34;;;;;;;6.40;4.07;;;;;;;20.28;100.00;99842.75;5001903;28;20058;-75
2023/07/03 03:17:00;;;;;;;7.00;4.25;;;;;;;20.34;100.00;99841.56;4994130;28;20085;-74
2023/07/03 03:19:25;;;;;;;7.63;3.80;;;;;;;20.87;100.00;99948.22;5006946;28;20777;-74
2023/07/03 03:21:51;;;;;;;17.40;4.82;;;;;;;20.42;100.00;99874.91;5006878;28;20049;-75
2023/07/03 03:24:17;;;;;;;5.47;4.13;;;;;;;20.90;100.00;99946.34;5006154;28;20046;-75
2023/07/03 03:26:42;;;;;;;4.93;3.05;;;;;;;20.75;100.00;99926.66;4989536;28;20049;-76
2023/07/03 03:29:08;;;;;;;7.60;4.13;;;;;;;20.58;100.00;99882.16;5003138;28;20034;-75
2023/07/03 03:31:33;;;;;;;8.00;4.45;;;;;;;20.58;100.00;99867.03;4998941;28;20084;-75
2023/07/03 03:33:59;;;;;;;5.80;3.83;;;;;;;21.10;100.00;99964.91;5004115;28;20510;-76
2023/07/03 03:36:26;;;;;;;6.75;3.58;;;;;;;21.07;100.00;99957.03;5005474;28;20038;-75
2023/07/03 03:38:51;;;;;;;4.80;3.05;;;;;;;21.12;100.00;99962.13;5006219;28;20497;-76
2023/07/03 03:41:17;;;;;;;7.35;4.90;;;;;;;20.61;100.00;99884.69;5007137;28;20029;-75
2023/07/03 03:43:45;;;;;;;7.70;4.18;;;;;;;20.73;100.00;99908.06;5000581;28;20036;-75
2023/07/03 03:46:11;;;;;;;6.97;3.53;;;;;;;21.13;100.00;99967.41;4989008;28;20051;-75
2023/07/03 03:48:36;;;;;;;5.90;4.43;;;;;;;20.76;100.00;99896.38;5007253;28;20049;-75
2023/07/03 03:51:02;;;;;;;14.15;4.43;;;;;;;21.06;100.00;99947.31;5000908;28;20049;-75
2023/07/03 03:53:28;;;;;;;8.20;5.57;;;;;;;21.06;100.00;99957.97;5005214;28;20069;-75
2023/07/03 03:55:53;;;;;;;12.30;5.40;;;;;;;20.55;100.00;99890.28;5005579;28;20037;-75
2023/07/03 03:58:20;;;;;;;7.57;4.38;;;;;;;20.52;100.00;99907.28;5007946;28;20045;-75
2023/07/03 04:00:45;;;;;;;7.15;3.88;;;;;;;20.33;100.00;99886.00;5002462;28;20490;-75
2023/07/03 04:03:12;;;;;;;8.85;4.82;;;;;;;21.13;100.00;99999.41;5003048;28;20117;-75
2023/07/03 04:05:39;;;;;;;8.57;4.13;;;;;;;20.61;100.00;99896.22;5007878;28;20081;-75
2023/07/03 04:08:05;;;;;;;8.00;4.13;;;;;;;20.66;100.00;99912.84;5004709;28;20044;-75
2023/07/03 04:10:30;;;;;;;7.88;5.88;;;;;;;20.68;100.00;99910.09;5008340;28;20029;-75
2023/07/03 04:12:56;;;;;;;10.48;4.28;;;;;;;21.27;100.00;99996.91;5003905;28;20038;-75
2023/07/03 04:15:23;;;;;;;7.05;4.32;;;;;;;21.23;100.00;99986.47;5004451;28;20046;-75
2023/07/03 04:17:48;;;;;;;9.00;4.95;;;;;;;21.20;100.00;100010.66;5007708;28;20042;-75
2023/07/03 04:20:14;;;;;;;7.00;5.35;;;;;;;21.10;100.00;99988.06;5007678;28;20022;-76
2023/07/03 04:22:41;;;;;;;8.80;4.35;;;;;;;20.83;100.00;99911.97;5006009;28;20827;-75
2023/07/03 04:25:07;;;;;;;9.88;5.63;;;;;;;21.37;100.00;99999.97;5006532;28;20501;-76
2023/07/03 04:27:33;;;;;;;8.23;5.43;;;;;;;20.82;100.00;99902.25;5003867;28;20836;-76
2023/07/03 04:29:59;;;;;;;12.57;7.80;;;;;;;21.29;100.00;99991.50;5004957;28;20065;-75
2023/07/03 04:32:25;;;;;;;7.15;5.00;;;;;;;21.50;100.00;100018.94;5005907;28;20526;-75
2023/07/03 04:34:50;;;;;;;8.10;4.47;;;;;;;21.24;100.00;100022.91;4982993;28;20050;-74
2023/07/03 04:37:17;;;;;;;9.50;5.55;;;;;;;21.51;100.00;100015.31;4996632;28;20132;-75
2023/07/03 04:39:43;;;;;;;8.95;5.50;;;;;;;21.17;100.00;99968.13;4981163;28;20046;-76
2023/07/03 04:42:13;;;;;;;4.53;3.15;;;;;;;21.50;100.00;100017.13;5000386;28;20049;-77
2023/07/03 04:44:41;;;;;;;10.63;6.15;;;;;;;21.28;100.00;99993.31;5005101;28;20500;-76
2023/07/03 04:47:08;;;;;;;10.57;4.65;;;;;;;21.39;100.00;100018.59;5004607;28;20033;-76
2023/07/03 04:49:33;;;;;;;11.95;5.13;;;;;;;20.96;100.00;99920.25;5001098;28;20057;-76
2023/07/03 04:51:59;;;;;;;6.95;5.15;;;;;;;21.02;100.00;99956.41;5006422;28;20454;-75
2023/07/03 04:54:27;;;;;;;9.43;6.40;;;;;;;21.59;100.00;100029.13;4999702;28;20057;-75
2023/07/03 04:56:53;;;;;;;9.27;4.65;;;;;;;21.71;100.00;100041.00;5005771;28;20045;-75
2023/07/03 04:59:19;;;;;;;22.30;5.10;;;;;;;21.62;100.00;100009.41;5005499;28;20133;-75
2023/07/03 05:01:44;;;;;;;8.88;5.45;;;;;;;21.70;100.00;100024.09;4988013;28;20084;-74
2023/07/03 05:04:10;;;;;;;9.52;6.47;;;;;;;21.93;100.00;100048.72;4998719;28;20101;-74
2023/07/03 05:06:36;;;;;;;13.73;4.57;;;;;;;21.88;100.00;100043.63;4988596;28;20054;-75
2023/07/03 05:09:02;;;;;;;9.65;7.00;;;;;;;21.84;100.00;100044.72;4984928;28;20157;-76
2023/07/03 05:11:29;;;;;;;12.70;5.05;;;;;;;21.54;100.00;100022.28;5000353;28;20046;-74
2023/07/03 05:13:55;;;;;;;7.95;5.50;;;;;;;21.83;100.00;99949.50;4972323;28;20041;-75
2023/07/03 05:16:21;;;;;;;10.70;6.45;;;;;;;21.61;100.00;99951.59;5000101;28;20061;-74
2023/07/03 05:18:46;;;;;;;12.55;7.28;;;;;;;21.28;100.00;99950.63;5002452;28;20481;-76
2023/07/03 05:21:12;;;;;;;9.07;5.55;;;;;;;21.49;100.00;99970.03;4997451;28;20129;-75
2023/07/03 05:23:37;;;;;;;10.02;6.72;;;;;;;22.32;100.00;100051.09;4990276;28;20038;-75
2023/07/03 05:26:03;;;;;;;8.82;5.30;;;;;;;22.75;100.00;100056.72;5001834;28;20038;-74
2023/07/03 05:28:30;;;;;;;10.45;5.20;;;;;;;23.20;100.00;100008.72;5005136;28;20049;-75
2023/07/03 05:30:57;;;;;;;9.32;5.75;;;;;;;23.96;100.00;99965.72;4995717;28;20054;-75
2023/07/03 05:33:24;;;;;;;10.95;5.75;;;;;;;24.28;100.00;99970.00;4982800;28;20043;-75
2023/07/03 05:35:49;;;;;;;9.00;5.78;;;;;;;25.18;100.00;100041.97;5002276;28;20050;-75
2023/07/03 05:38:15;;;;;;;10.07;5.82;;;;;;;25.48;100.00;100055.16;4995617;28;20030;-74
2023/07/03 05:40:40;;;;;;;11.55;5.38;;;;;;;25.11;100.00;99962.75;5005014;28;20394;-73
2023/07/03 05:43:06;;;;;;;8.30;4.63;;;;;;;25.69;100.00;100036.72;5006349;28;20049;-74
2023/07/03 05:45:31;;;;;;;7.95;3.88;;;;;;;25.86;100.00;99980.91;4999484;28;20504;-74
2023/07/03 05:47:57;;;;;;;6.60;5.63;;;;;;;26.36;100.00;100059.84;5002099;28;20046;-76
2023/07/03 05:50:22;;;;;;;6.78;4.72;;;;;;;26.33;100.00;100038.53;4994737;28;20494;-74
2023/07/03 05:52:48;;;;;;;8.25;3.97;;;;;;;26.14;100.00;100056.97;5007681;28;20042;-75
2023/07/03 05:55:14;;;;;;;6.40;4.68;;;;;;;26.11;100.00;100047.28;5005452;28;20042;-74
2023/07/03 05:57:39;;;;;;;17.25;4.28;;;;;;;26.42;100.00;100067.47;5008670;28;20060;-74
2023/07/03 06:00:13;;;;;;;8.93;4.53;;;;;;;26.70;100.00;100054.75;5007488;28;20422;-75
2023/07/03 06:02:40;;;;;;;8.45;4.10;;;;;;;26.15;100.00;99992.28;4991776;28;20073;-76
2023/07/03 06:05:06;;;;;;;6.43;4.72;;;;;;;25.06;100.00;99981.84;5001172;28;20111;-76
2023/07/03 06:07:31;;;;;;;7.47;5.57;;;;;;;26.04;100.00;99987.69;5008028;28;20034;-77
2023/07/03 06:09:57;;;;;;;8.38;4.97;;;;;;;27.29;100.00;100078.25;5008074;28;20631;-76
2023/07/03 06:12:28;;;;;;;5.72;4.30;;;;;;;26.54;100.00;99993.09;5004576;28;20074;-76
2023/07/03 06:14:54;;;;;;;6.18;3.63;;;;;;;26.12;100.00;100027.50;5005872;28;20034;-74
2023/07/03 06:17:20;;;;;;;5.50;3.25;;;;;;;26.36;100.00;100075.97;5005003;28;20797;-74
2023/07/03 06:19:45;;;;;;;5.47;2.90;;;;;;;27.28;100.00;100087.31;4995904;28;20476;-76
2023/07/03 06:22:10;;;;;;;7.10;4.60;;;;;;;26.02;100.00;100086.44;5008208;28;20041;-75
2023/07/03 06:24:36;;;;;;;9.27;5.25;;;;;;;26.26;100.00;100089.22;5004379;28;20046;-74
2023/07/03 06:27:02;;;;;;;4.57;2.88;;;;;;;26.70;100.00;100068.22;5004644;28;20046;-74
2023/07/03 06:29:28;;;;;;;8.43;4.07;;;;;;;26.86;100.00;100008.72;5009528;28;20046;-74
2023/07/03 06:31:53;;;;;;;5.82;4.13;;;;;;;26.22;100.00;99955.94;5009016;28;20164;-74
2023/07/03 06:34:19;;;;;;;15.95;9.90;;;;;;;26.94;100.00;99984.75;5000967;28;20051;-75
2023/07/03 06:36:45;;;;;;;7.95;5.35;;;;;;;26.23;100.00;100034.81;5008146;28;20048;-74
2023/07/03 06:39:12;;;;;;;8.30;3.65;;;;;;;27.02;100.00;100068.53;5009373;28;20046;-74
2023/07/03 06:41:37;;;;;;;5.13;3.78;;;;;;;26.92;100.00;100094.41;5008635;28;20049;-74
2023/07/03 06:44:05;;;;;;;7.22;3.80;;;;;;;27.31;100.00;100060.13;5006397;28;20397;-75
2023/07/03 06:46:30;;;;;;;8.60;5.30;;;;;;;27.26;100.00;100075.81;4999592;28;20041;-75
2023/07/03 06:48:56;;;;;;;8.38;4.18;;;;;;;27.73;100.00;100082.97;5016461;28;20090;-74
2023/07/03 06:51:22;;;;;;;5.85;3.70;;;;;;;27.88;100.00;100102.50;5004709;28;20050;-75
2023/07/03 06:53:48;;;;;;;5.60;3.70;;;;;;;27.69;100.00;100032.09;5006213;28;20035;-74
2023/07/03 06:56:13;;;;;;;6.60;4.68;;;;;;;27.70;100.00;100013.09;5010591;28;20055;-75
2023/07/03 06:58:39;;;;;;;14.75;6.88;;;;;;;26.52;100.00;100011.16;5008288;28;20026;-74
2023/07/03 07:01:12;;;;;;;7.78;4.22;;;;;;;27.09;100.00;100037.50;5008976;28;20053;-74
2023/07/03 07:03:38;;;;;;;6.45;3.08;;;;;;;27.65;100.00;100093.50;5004731;28;20045;-75
2023/07/03 07:06:13;;;;;;;5.30;3.17;;;;;;;27.52;100.00;100076.53;5007639;28;20659;-75
2023/07/03 07:08:39;;;;;;;4.47;3.28;;;;;;;27.34;100.00;100070.69;5004831;28;20050;-75
2023/07/03 07:11:13;;;;;;;5.82;2.40;;;;;;;28.03;100.00;100084.28;5003740;28;20052;-76
2023/07/03 07:13:41;;;;;;;12.68;3.25;;;;;;;28.16;100.00;100057.19;5004992;28;20046;-74
2023/07/03 07:16:14;;;;;;;7.35;3.25;;;;;;;27.42;100.00;100105.13;4999850;28;20077;-74
2023/07/03 07:18:41;;;;;;;7.68;4.75;;;;;;;27.52;100.00;100039.63;5003245;28;20073;-75
2023/07/03 07:21:07;;;;;;;6.82;3.60;;;;;;;28.18;100.00;100114.59;5007129;28;20049;-75
2023/07/03 07:23:33;;;;;;;5.88;3.28;;;;;;;28.19;100.00;100114.47;5006587;28;20472;-75
2023/07/03 07:25:58;;;;;;;7.57;3.45;;;;;;;27.60;100.00;100051.66;5006486;28;20106;-74
2023/07/03 07:28:24;;;;;;;5.53;3.75;;;;;;;27.84;100.00;100025.53;5004202;28;20503;-73
2023/07/03 07:30:49;;;;;;;5.53;3.00;;;;;;;27.63;100.00;100035.25;5006046;28;20050;-74
2023/07/03 07:33:15;;;;;;;4.13;2.80;;;;;;;28.23;100.00;100036.84;5000860;28;20049;-74
2023/07/03 07:35:42;;;;;;;6.20;3.42;;;;;;;27.92;100.00;100095.91;5000522;28;20572;-75
2023/07/03 07:38:07;;;;;;;17.73;4.55;;;;;;;28.10;100.00;100085.53;5006892;28;20508;-75
2023/07/03 07:40:33;;;;;;;8.27;3.70;;;;;;;28.45;100.00;100070.19;5004162;28;20072;-74
2023/07/03 07:42:59;;;;;;;6.78;3.92;;;;;;;27.85;100.00;100043.41;5000335;28;20505;-74
2023/07/03 07:45:24;;;;;;;6.78;3.10;;;;;;;27.97;100.00;100126.06;4999513;28;20632;-73
2023/07/03 07:47:50;;;;;;;7.70;5.40;;;;;;;28.33;100.00;100070.22;5002538;28;20358;-74
2023/07/03 07:50:15;;;;;;;6.93;4.75;;;;;;;27.92;98.82;100066.22;5004275;28;20092;-74
2023/07/03 07:52:41;;;;;;;3.45;2.50;;;;;;;28.24;100.00;100091.66;4996560;28;20048;-74
2023/07/03 07:55:07;;;;;;;5.50;3.95;;;;;;;29.22;100.00;100113.47;4984315;28;20073;-74
2023/07/03 07:57:32;;;;;;;5.68;3.50;;;;;;;28.58;99.42;100079.91;4992287;28;20041;-74
2023/07/03 07:59:58;;;;;;;4.70;3.45;;;;;;;28.31;97.39;100098.31;5006705;28;20062;-74
2023/07/03 08:02:23;;;;;;;4.32;3.10;;;;;;;28.48;97.32;100114.03;5004090;28;20131;-75
2023/07/03 08:04:48;;;;;;;4.45;3.20;;;;;;;28.74;97.55;100128.16;5004493;28;20441;-74
2023/07/03 08:07:14;;;;;;;8.95;3.10;;;;;;;28.90;96.62;100041.31;5004713;28;20096;-75
2023/07/03 08:09:40;;;;;;;5.50;3.50;;;;;;;28.86;90.00;100131.69;5000854;28;20053;-75
2023/07/03 08:12:08;;;;;;;3.58;2.42;;;;;;;28.53;99.29;100124.47;4997342;28;20042;-75
2023/07/03 08:14:33;;;;;;;5.93;3.63;;;;;;;29.21;88.80;100088.28;4999699;28;20045;-76
2023/07/03 08:16:59;;;;;;;4.30;2.92;;;;;;;28.79;88.51;100141.28;5002782;28;20042;-75
2023/07/03 08:19:24;;;;;;;4.22;2.95;;;;;;;29.53;85.36;100137.97;5006101;28;20049;-75
2023/07/03 08:21:50;;;;;;;12.65;3.78;;;;;;;29.18;87.59;100112.88;5002562;28;20271;-75
2023/07/03 08:24:15;;;;;;;5.03;3.22;;;;;;;29.78;84.98;100124.13;5000141;28;20457;-75
2023/07/03 08:26:44;;;;;;;13.18;3.35;;;;;;;29.71;84.23;100132.88;4987027;28;20054;-76
2023/07/03 08:29:10;;;;;;;19.30;4.28;;;;;;;29.11;81.10;100081.09;5000695;28;20058;-75
2023/07/03 08:31:35;;;;;;;4.93;3.55;;;;;;;30.15;82.43;100141.75;5003696;28;20037;-75
2023/07/03 08:34:02;;;;;;;5.82;3.83;;;;;;;29.25;86.45;100121.34;5000029;28;20097;-75
2023/07/03 08:36:27;;;;;;;5.18;2.63;;;;;;;29.65;87.22;100131.53;5003667;28;20042;-75
2023/07/03 08:38:53;;;;;;;6.25;4.18;;;;;;;28.40;91.44;100138.91;5003625;28;20046;-75
2023/07/03 08:41:19;;;;;;;6.72;3.25;;;;;;;27.90;98.62;100135.63;5004119;28;20401;-74
2023/07/03 08:43:49;;;;;;;4.53;3.10;;;;;;;28.83;88.79;100077.94;5003868;28;20034;-74
2023/07/03 08:46:24;;;;;;;5.22;2.90;;;;;;;28.87;85.54;100062.31;4985125;28;20057;-75
2023/07/03 08:48:53;;;;;;;6.53;3.92;;;;;;;29.60;91.52;100112.13;5002804;28;20573;-75
2023/07/03 08:51:23;;;;;;;4.35;2.50;;;;;;;29.70;88.40;100079.78;5001925;28;20761;-75
2023/07/03 08:53:58;;;;;;;4.35;2.95;;;;;;;30.10;80.26;100142.13;4999693;28;20050;-74
2023/07/03 08:56:32;;;;;;;4.13;2.95;;;;;;;29.64;84.58;100124.38;4998133;28;20140;-74
2023/07/03 08:58:58;;;;;;;4.60;3.03;;;;;;;29.41;84.90;100070.41;4996561;28;20100;-74
2023/07/03 09:01:29;;;;;;;5.93;3.17;;;;;;;30.54;85.50;100136.59;4997030;28;20549;-75
2023/07/03 09:04:08;;;;;;;4.88;3.20;;;;;;;31.36;77.73;100147.25;5001127;28;20057;-75
2023/07/03 09:06:50;;;;;;;15.18;3.22;;;;;;;31.17;77.55;100142.66;4986120;28;20038;-75
2023/07/03 09:09:27;;;;;;;4.03;3.08;;;;;;;31.09;74.73;100142.50;4999983;28;20038;-74
2023/07/03 09:12:17;;;;;;;5.28;4.25;;;;;;;30.21;74.68;100146.63;5005500;28;20136;-74
2023/07/03 09:14:49;;;;;;;4.90;2.47;;;;;;;31.18;75.82;100144.38;5001866;28;20056;-73
2023/07/03 09:17:15;;;;;;;6.75;2.85;;;;;;;31.43;72.75;100071.66;4997994;28;20488;-74
2023/07/03 09:19:46;;;;;;;3.03;2.20;;;;;;;29.59;81.61;100140.13;5004730;28;20041;-73
2023/07/03 09:22:46;;;;;;;4.47;3.30;;;;;;;30.99;80.13;100145.19;4996156;28;20057;-74
2023/07/03 09:25:31;;;;;;;7.40;3.80;;;;;;;31.89;71.03;100132.44;4994820;28;20145;-76
2023/07/03 09:27:59;;;;;;;5.07;2.90;;;;;;;32.56;66.28;100131.47;4985066;28;20050;-74
2023/07/03 09:30:24;;;;;;;5.57;3.72;;;;;;;32.50;63.18;100088.63;5003497;28;20042;-74
2023/07/03 09:32:50;;;;;;;4.28;2.78;;;;;;;31.38;64.11;99993.41;5004420;28;20073;-74
2023/07/03 09:35:20;;;;;;;4.80;3.17;;;;;;;31.76;68.00;100125.47;5001770;28;20033;-74
2023/07/03 09:37:50;;;;;;;5.03;3.75;;;;;;;31.58;66.05;100058.50;5006483;28;20048;-75
2023/07/03 09:40:40;;;;;;;3.85;2.97;;;;;;;30.91;70.82;100118.78;5005886;28;20049;-74
2023/07/03 09:43:14;;;;;;;4.80;3.67;;;;;;;31.67;65.73;100129.03;5002143;28;20038;-74
2023/07/03 09:45:40;;;;;;;3.70;2.30;;;;;;;32.11;68.53;100113.16;5002551;28;20045;-75
2023/07/03 09:48:17;;;;;;;5.97;3.80;;;;;;;32.49;59.67;100124.91;5006193;28;20046;-74
2023/07/03 09:50:43;;;;;;;3.95;2.72;;;;;;;32.97;58.24;100126.56;4988459;28;20045;-75
2023/07/03 09:53:16;;;;;;;4.82;3.88;;;;;;;31.65;59.79;100081.34;5000925;28;20037;-76
2023/07/03 09:55:42;;;;;;;5.63;3.78;;;;;;;32.70;60.96;100121.13;4999222;28;20030;-74
2023/07/03 09:58:16;;;;;;;3.35;2.53;;;;;;;32.30;58.63;100016.34;5007333;28;20099;-75
2023/07/03 10:00:50;;;;;;;5.40;4.13;;;;;;;32.35;51.45;100120.81;5001993;28;20046;-76
2023/07/03 10:03:25;;;;;;;5.32;4.10;;;;;;;33.37;53.74;100116.34;4990763;28;20046;-76
2023/07/03 10:05:51;;;;;;;4.32;3.20;;;;;;;31.80;54.08;100044.63;4996912;28;20100;-75
2023/07/03 10:08:20;;;;;;;6.30;3.85;;;;;;;31.37;58.57;100032.34;5002960;28;20065;-77
2023/07/03 10:10:46;;;;;;;2.83;2.08;;;;;;;32.49;55.68;100029.81;5004803;28;20118;-74
2023/07/03 10:13:23;;;;;;;3.35;2.35;;;;;;;33.36;52.77;100041.16;5003989;28;20125;-75
2023/07/03 10:15:51;;;;;;;4.57;3.25;;;;;;;32.56;53.38;100111.63;5001871;28;20065;-74
2023/07/03 10:18:35;;;;;;;3.55;2.50;;;;;;;31.52;53.68;100046.38;4984306;28;20046;-74
2023/07/03 10:21:04;;;;;;;3.90;2.60;;;;;;;32.61;56.05;100071.25;5000654;28;20053;-74
2023/07/03 10:23:35;;;;;;;9.88;3.72;;;;;;;31.66;53.12;100051.38;5004770;28;20164;-78
2023/07/03 10:26:08;;;;;;;5.65;3.10;;;;;;;31.15;56.30;100035.38;5005752;28;20041;-75
2023/07/03 10:28:43;;;;;;;5.53;3.92;;;;;;;32.97;55.13;100093.09;5000898;28;20046;-77
2023/07/03 10:31:18;;;;;;;3.83;2.83;;;;;;;33.89;51.53;100034.81;4997150;28;20129;-75
2023/07/03 10:33:46;;;;;;;3.72;2.53;;;;;;;32.74;50.14;100009.25;4997508;28;20554;-76
2023/07/03 10:36:24;;;;;;;4.40;2.90;;;;;;;31.53;54.00;100038.09;4994760;28;20050;-75
2023/07/03 10:39:22;;;;;;;8.85;2.15;;;;;;;31.16;60.86;100086.72;5009701;28;20049;-75
2023/07/03 10:41:51;;;;;;;4.13;2.75;;;;;;;30.44;64.01;100007.41;4980130;28;20042;-75
2023/07/03 10:44:25;;;;;;;4.93;3.60;;;;;;;30.01;65.90;100008.47;5007007;28;20065;-75
2023/07/03 10:47:06;;;;;;;5.13;3.00;;;;;;;30.09;73.09;100089.00;5000524;28;20113;-75
2023/07/03 10:49:34;;;;;;;3.50;2.30;;;;;;;30.88;65.69;100016.09;5007578;28;20395;-76
2023/07/03 10:52:17;;;;;;;4.60;2.75;;;;;;;30.90;64.48;100027.63;5001208;28;20570;-74
2023/07/03 10:54:51;;;;;;;;;;;;;;;31.82;59.65;100091.47;5008165;28;20034;-75
2023/07/03 10:57:26;;;;;;;7.38;2.88;;;;;;;31.10;60.04;100025.81;5003143;28;19921;-73
2023/07/03 10:59:57;;;;;;;4.78;3.03;;;;;;;30.09;65.36;100100.69;5000907;28;20590;-76
2023/07/03 11:02:41;;;;;;;6.35;3.60;;;;;;;29.36;69.61;99969.06;5005602;28;20060;-74
2023/07/03 11:05:20;;;;;;;4.13;2.85;;;;;;;29.52;70.95;100106.50;5001701;28;20381;-75
2023/07/03 11:08:03;;;;;;;3.75;2.55;;;;;;;30.05;69.13;100101.94;5003631;28;20175;-73
2023/07/03 11:10:38;;;;;;;3.30;2.47;;;;;;;29.60;67.18;100017.47;5001807;28;20102;-75
2023/07/03 11:13:18;;;;;;;6.47;3.53;;;;;;;30.50;62.74;100081.81;5004374;28;20049;-75
2023/07/03 11:15:54;;;;;;;4.20;3.10;;;;;;;30.45;62.50;100090.34;5006712;28;20050;-75
2023/07/03 11:18:38;;;;;;;5.95;3.35;;;;;;;31.24;61.06;100088.75;5007171;28;20386;-75
2023/07/03 11:21:31;;;;;;;5.32;4.53;;;;;;;31.77;55.54;100009.63;5004457;28;20057;-75
2023/07/03 11:24:09;;;;;;;4.70;4.15;;;;;;;31.88;54.53;100009.47;5001039;28;20060;-75
2023/07/03 11:26:38;;;;;;;4.88;3.30;;;;;;;32.54;51.52;100081.03;5003958;28;20050;-75